Time;durP1;ratioP1;P1;durP2;ratioP2;P2;SDS_P1;SDS_P2;PMS_P1;PMS_P2;Temp;Humidity;BMP_temperature;BMP_pressure;BME280_temperature;BME280_humidity;BME280_pressure;Samples;Min_cycle;Max_cycle;Signal;HPM_P1;HPM_P2
2023/04/04 00:00:21;;;;;;;27.10;13.40;;;;;;;10.07;94.61;98393.09;3168469;28;20047;-66
2023/04/04 00:01:53;;;;;;;27.52;13.85;;;;;;;10.04;94.59;98383.72;3170558;28;20055;-65
2023/04/04 00:03:25;;;;;;;30.08;14.38;;;;;;;10.09;94.91;98386.84;3170647;28;20166;-66
2023/04/04 00:04:57;;;;;;;23.13;14.32;;;;;;;10.06;94.65;98381.00;3170372;28;20508;-65
2023/04/04 00:06:29;;;;;;;20.25;12.98;;;;;;;10.10;94.77;98391.13;3167949;28;20165;-65
2023/04/04 00:08:02;;;;;;;29.15;14.23;;;;;;;10.09;95.01;98383.44;3170613;28;20056;-66
2023/04/04 00:09:34;;;;;;;23.98;13.75;;;;;;;10.09;94.64;98376.44;3170244;28;20228;-66
2023/04/04 00:11:06;;;;;;;23.45;13.63;;;;;;;10.08;94.81;98366.13;3170501;28;20051;-66
2023/04/04 00:12:38;;;;;;;27.52;12.77;;;;;;;10.08;94.63;98364.38;3169085;28;20505;-66
2023/04/04 00:14:10;;;;;;;25.27;13.32;;;;;;;10.09;94.97;98354.81;3162781;28;20048;-66
2023/04/04 00:15:42;;;;;;;19.83;12.73;;;;;;;10.11;94.94;98352.94;3169913;28;20043;-66
2023/04/04 00:17:13;;;;;;;24.45;13.77;;;;;;;10.12;94.56;98352.84;3169744;28;20051;-66
2023/04/04 00:18:44;;;;;;;27.33;14.15;;;;;;;10.11;94.73;98364.16;3166854;28;20196;-66
2023/04/04 00:20:16;;;;;;;21.52;12.55;;;;;;;10.10;94.79;98359.06;3165323;28;20082;-66
2023/04/04 00:21:49;;;;;;;25.58;13.25;;;;;;;10.11;95.04;98358.97;3170021;28;20055;-66
2023/04/04 00:23:22;;;;;;;29.95;13.65;;;;;;;10.14;95.13;98353.56;3170436;28;20059;-66
2023/04/04 00:24:54;;;;;;;26.70;13.43;;;;;;;10.14;95.06;98352.72;3157752;28;20529;-66
2023/04/04 00:26:26;;;;;;;29.63;13.80;;;;;;;10.10;94.80;98335.66;3170057;28;20063;-65
2023/04/04 00:27:59;;;;;;;29.25;13.52;;;;;;;10.12;95.02;98344.22;3166198;28;20513;-65
2023/04/04 00:29:33;;;;;;;25.63;13.48;;;;;;;10.13;95.08;98344.09;3169093;28;20047;-66
2023/04/04 00:31:05;;;;;;;29.55;13.38;;;;;;;10.14;94.71;98345.75;3170362;28;20107;-66
2023/04/04 00:32:36;;;;;;;24.25;14.30;;;;;;;10.14;94.85;98347.53;3170467;28;20054;-65
2023/04/04 00:34:09;;;;;;;26.92;15.00;;;;;;;10.12;94.69;98334.63;3170118;28;20048;-66
2023/04/04 00:35:41;;;;;;;26.38;14.27;;;;;;;10.11;94.70;98340.75;3170108;28;20048;-66
2023/04/04 00:37:12;;;;;;;21.45;13.68;;;;;;;10.11;94.82;98337.31;3167748;28;20072;-65
2023/04/04 00:38:46;;;;;;;23.33;14.65;;;;;;;10.10;94.81;98340.88;3170185;28;20052;-66
2023/04/04 00:40:17;;;;;;;;;;;;;;;10.03;94.61;98343.06;3170150;28;20108;-66
2023/04/04 00:41:49;;;;;;;27.17;13.98;;;;;;;10.04;95.03;98347.31;3169865;28;20010;-66
2023/04/04 00:43:21;;;;;;;26.40;14.35;;;;;;;10.07;94.97;98359.28;3168088;28;20518;-65
2023/04/04 00:44:52;;;;;;;28.83;14.43;;;;;;;10.02;94.97;98351.75;3170274;28;20043;-65
2023/04/04 00:46:25;;;;;;;26.00;14.77;;;;;;;10.02;95.25;98351.75;3169751;28;20044;-66
2023/04/04 00:47:56;;;;;;;26.42;14.90;;;;;;;10.04;95.11;98347.31;3168397;28;20047;-65
2023/04/04 00:49:28;;;;;;;25.35;13.45;;;;;;;10.06;95.10;98340.25;3160767;28;20056;-65
2023/04/04 00:51:01;;;;;;;29.15;14.95;;;;;;;10.08;95.28;98333.16;3170052;28;20127;-65
2023/04/04 00:52:32;;;;;;;30.02;15.05;;;;;;;10.08;94.92;98333.16;3170060;28;20071;-65
2023/04/04 00:54:05;;;;;;;24.25;15.20;;;;;;;10.07;95.08;98330.66;3169005;28;20484;-66
2023/04/04 00:55:37;;;;;;;25.38;14.23;;;;;;;10.08;94.85;98334.94;3169870;28;20354;-65
2023/04/04 00:57:09;;;;;;;24.00;14.55;;;;;;;10.08;95.11;98334.94;3169067;28;20051;-66
2023/04/04 00:58:41;;;;;;;27.05;15.57;;;;;;;10.07;95.39;98331.50;3159971;28;20059;-65
2023/04/04 01:00:14;;;;;;;29.25;15.43;;;;;;;10.07;95.38;98331.50;3168785;28;20051;-65
2023/04/04 01:01:45;;;;;;;;;;;;;;;9.98;95.46;98334.72;3170037;28;20389;-65
2023/04/04 01:03:17;;;;;;;28.45;15.35;;;;;;;9.97;95.38;98338.25;3169496;28;19926;-65
2023/04/04 01:04:47;;;;;;;29.92;15.98;;;;;;;9.96;95.51;98326.16;3169783;28;20055;-65
2023/04/04 01:06:20;;;;;;;29.23;16.88;;;;;;;9.98;95.68;98327.75;3170116;28;20439;-65
2023/04/04 01:07:51;;;;;;;27.87;16.77;;;;;;;9.72;95.44;98272.25;3169937;28;20129;-66
2023/04/04 01:09:24;;;;;;;26.75;16.13;;;;;;;10.05;95.52;98322.94;3169484;28;20405;-65
2023/04/04 01:10:57;;;;;;;30.95;17.73;;;;;;;9.98;95.62;98311.31;3170092;28;20047;-65
2023/04/04 01:12:29;;;;;;;37.37;18.40;;;;;;;10.08;95.61;98330.56;3169831;28;20056;-65
2023/04/04 01:14:01;;;;;;;33.35;17.85;;;;;;;10.08;95.82;98332.31;3160983;28;20382;-65
2023/04/04 01:15:33;;;;;;;36.80;19.08;;;;;;;10.11;95.76;98325.16;3169392;28;20505;-65
2023/04/04 01:17:05;;;;;;;34.67;18.13;;;;;;;10.13;95.57;98327.66;3169954;28;20044;-65
2023/04/04 01:18:40;;;;;;;36.60;20.77;;;;;;;10.09;95.57;98321.84;3159837;28;20105;-66
2023/04/04 01:20:14;;;;;;;34.58;21.95;;;;;;;10.11;95.67;98321.72;3164521;28;20101;-65
2023/04/04 01:21:47;;;;;;;39.65;23.48;;;;;;;10.11;96.06;98311.31;3169661;28;20094;-65
2023/04/04 01:23:21;;;;;;;39.60;20.42;;;;;;;10.08;96.05;98314.94;3170022;28;20905;-65
2023/04/04 01:24:56;;;;;;;35.22;20.25;;;;;;;10.08;96.18;98312.34;3169916;28;20070;-65
2023/04/04 01:26:29;;;;;;;36.78;21.30;;;;;;;10.09;96.14;98303.63;3157280;28;20048;-64
2023/04/04 01:28:00;;;;;;;34.33;20.63;;;;;;;10.06;96.35;98292.56;3164531;28;20080;-65
2023/04/04 01:29:32;;;;;;;37.42;20.25;;;;;;;10.12;96.14;98295.63;3168643;28;20062;-65
2023/04/04 01:31:06;;;;;;;35.60;19.80;;;;;;;10.15;96.31;98290.22;3168421;28;20051;-65
2023/04/04 01:32:44;;;;;;;36.58;19.63;;;;;;;10.14;96.52;98303.31;3169838;28;20409;-65
2023/04/04 01:34:23;;;;;;;59.60;25.73;;;;;;;10.10;96.27;98294.88;3169457;28;20059;-65
2023/04/04 01:36:05;;;;;;;45.95;25.10;;;;;;;10.10;96.18;98312.25;3159549;28;20481;-65
2023/04/04 01:37:44;;;;;;;48.28;24.88;;;;;;;10.08;96.27;98306.31;3168551;28;20405;-64
2023/04/04 01:39:24;;;;;;;33.75;21.75;;;;;;;10.05;96.17;98293.50;3169511;28;20079;-64
2023/04/04 01:41:01;;;;;;;31.92;21.48;;;;;;;10.05;96.53;98294.34;3169175;28;20508;-64
2023/04/04 01:42:36;;;;;;;37.72;21.38;;;;;;;10.07;96.72;98300.28;3169168;28;20051;-64
2023/04/04 01:44:09;;;;;;;36.25;23.63;;;;;;;10.07;96.46;98300.28;3168700;28;20444;-64
2023/04/04 01:45:42;;;;;;;39.60;21.88;;;;;;;10.09;96.38;98302.81;3169566;28;20436;-64
2023/04/04 01:47:14;;;;;;;43.90;22.35;;;;;;;10.09;96.73;98295.81;3169765;28;20048;-66
2023/04/04 01:48:45;;;;;;;38.58;21.88;;;;;;;10.01;96.76;98274.69;3169628;28;20102;-66
2023/04/04 01:50:17;;;;;;;34.85;20.83;;;;;;;10.12;97.01;98295.63;3165720;28;20062;-65
2023/04/04 01:51:49;;;;;;;38.15;21.13;;;;;;;10.13;96.60;98291.25;3169309;28;20138;-66
2023/04/04 01:53:22;;;;;;;37.10;20.70;;;;;;;10.14;96.79;98298.94;3168593;28;20484;-65
2023/04/04 01:54:54;;;;;;;35.28;21.63;;;;;;;10.16;96.83;98293.63;3167764;28;20052;-66
2023/04/04 01:56:26;;;;;;;35.88;20.77;;;;;;;10.15;96.50;98294.59;3169685;28;20500;-64
2023/04/04 01:57:59;;;;;;;38.60;22.95;;;;;;;10.18;96.53;98294.38;3165326;28;20087;-66
2023/04/04 01:59:30;;;;;;;38.00;20.67;;;;;;;10.17;96.53;98290.91;3161521;28;20039;-66
2023/04/04 02:01:02;;;;;;;36.58;21.95;;;;;;;10.20;96.76;98295.09;3169528;28;20100;-66
2023/04/04 02:02:33;;;;;;;43.15;25.10;;;;;;;10.21;96.92;98291.56;3169791;28;20128;-67
2023/04/04 02:04:05;;;;;;;75.70;36.85;;;;;;;10.20;96.95;98285.53;3169527;28;20500;-67
2023/04/04 02:05:37;;;;;;;44.83;25.17;;;;;;;10.18;96.95;98284.78;3169488;28;20047;-66
2023/04/04 02:07:09;;;;;;;48.95;27.25;;;;;;;10.18;97.29;98277.00;3169755;28;20056;-66
2023/04/04 02:08:40;;;;;;;44.20;25.05;;;;;;;10.17;97.24;98284.88;3169896;28;20458;-67
2023/04/04 02:10:12;;;;;;;41.78;25.00;;;;;;;10.15;97.74;98287.59;3168163;28;20100;-66
2023/04/04 02:11:44;;;;;;;40.20;24.65;;;;;;;10.14;97.83;98288.53;3159373;28;20550;-66
2023/04/04 02:13:18;;;;;;;39.58;23.30;;;;;;;10.12;97.57;98287.81;3152788;28;20048;-66
2023/04/04 02:14:50;;;;;;;41.13;21.98;;;;;;;10.14;97.72;98292.91;3156686;28;20140;-66
2023/04/04 02:16:22;;;;;;;39.80;22.00;;;;;;;10.15;97.95;98287.59;3160364;28;20055;-65
2023/04/04 02:17:54;;;;;;;42.17;22.70;;;;;;;10.18;97.57;98284.78;3161637;28;20597;-65
2023/04/04 02:19:26;;;;;;;40.88;22.88;;;;;;;10.21;98.07;98288.97;3161380;28;20194;-66
2023/04/04 02:20:58;;;;;;;38.70;22.35;;;;;;;10.19;97.87;98286.44;3156093;28;20055;-65
2023/04/04 02:22:29;;;;;;;40.33;22.08;;;;;;;10.24;98.11;98292.19;3161421;28;20433;-65
2023/04/04 02:24:01;;;;;;;38.78;22.27;;;;;;;10.24;97.94;98280.94;3161611;28;20044;-65
2023/04/04 02:25:33;;;;;;;45.50;22.20;;;;;;;10.27;97.80;98282.53;3161066;28;20047;-65
2023/04/04 02:27:05;;;;;;;40.92;23.50;;;;;;;10.24;97.60;98281.78;3152341;28;20056;-65
2023/04/04 02:28:37;;;;;;;39.55;23.55;;;;;;;10.28;98.02;98290.22;3161186;28;20116;-65
2023/04/04 02:30:11;;;;;;;38.47;22.35;;;;;;;10.28;98.05;98284.19;3161832;28;20052;-65
2023/04/04 02:31:43;;;;;;;39.20;25.17;;;;;;;10.27;98.29;98291.19;3161449;28;20058;-66
2023/04/04 02:33:15;;;;;;;46.28;25.77;;;;;;;10.28;98.17;98290.22;3162109;28;20079;-65
2023/04/04 02:34:47;;;;;;;43.78;24.05;;;;;;;9.59;97.93;98183.03;3162523;28;20170;-66
2023/04/04 02:36:19;;;;;;;40.30;24.55;;;;;;;10.31;98.16;98287.41;3148741;28;20048;-65
2023/04/04 02:37:50;;;;;;;42.53;23.20;;;;;;;10.33;98.21;98285.56;3161577;28;20052;-66
2023/04/04 02:39:22;;;;;;;35.63;21.58;;;;;;;10.34;97.80;98287.22;3161880;28;20090;-66
2023/04/04 02:40:54;;;;;;;36.50;21.73;;;;;;;10.36;97.97;98287.94;3162078;27;20125;-66
2023/04/04 02:42:25;;;;;;;37.20;20.75;;;;;;;10.37;97.71;98288.78;3162302;28;20496;-65
2023/04/04 02:43:58;;;;;;;34.33;19.90;;;;;;;10.33;97.95;98279.53;3158096;28;20070;-65
2023/04/04 02:45:30;;;;;;;33.05;19.40;;;;;;;10.37;98.09;98286.16;3161252;28;20052;-65
2023/04/04 02:47:01;;;;;;;36.15;20.73;;;;;;;10.41;97.76;98283.28;3161132;28;20112;-66
2023/04/04 02:48:35;;;;;;;31.80;19.95;;;;;;;10.41;97.73;98290.22;3160581;28;20055;-65
2023/04/04 02:50:06;;;;;;;;;;;;;;;10.35;97.77;98293.25;3162055;28;20894;-65
2023/04/04 02:51:38;;;;;;;27.23;17.17;;;;;;;10.37;97.89;98291.38;3161328;28;20004;-65
2023/04/04 02:53:10;;;;;;;25.20;16.55;;;;;;;10.39;97.82;98282.53;3159972;28;20373;-65
2023/04/04 02:54:43;;;;;;;28.95;17.30;;;;;;;10.41;97.58;98285.88;3157912;28;20055;-65
2023/04/04 02:56:15;;;;;;;27.15;16.85;;;;;;;10.42;97.80;98284.91;3161360;28;20047;-66
2023/04/04 02:57:51;;;;;;;25.70;16.38;;;;;;;10.00;97.31;98214.06;3159567;28;20420;-66
2023/04/04 02:59:25;;;;;;;28.02;16.52;;;;;;;10.43;97.51;98281.38;3152338;28;20044;-66
2023/04/04 03:00:57;;;;;;;25.60;16.10;;;;;;;10.42;97.26;98279.72;3162040;28;20130;-66
2023/04/04 03:02:29;;;;;;;26.98;15.38;;;;;;;10.45;97.41;98294.28;3161621;28;20044;-66
2023/04/04 03:04:03;;;;;;;28.67;16.52;;;;;;;10.45;97.41;98295.13;3161996;28;20437;-66
2023/04/04 03:05:35;;;;;;;24.45;15.43;;;;;;;10.44;97.27;98295.22;3161605;28;20051;-66
2023/04/04 03:07:07;;;;;;;26.27;15.85;;;;;;;10.42;97.10;98287.53;3161263;28;20049;-66
2023/04/04 03:08:39;;;;;;;24.95;16.27;;;;;;;10.43;96.99;98290.94;3162068;28;20276;-66
2023/04/04 03:10:11;;;;;;;29.20;18.90;;;;;;;10.42;96.97;98290.13;3161474;28;20456;-66
2023/04/04 03:11:43;;;;;;;28.00;18.15;;;;;;;10.41;97.02;98292.81;3161853;27;20148;-66
2023/04/04 03:13:15;;;;;;;29.33;17.80;;;;;;;10.35;96.55;98288.88;3154797;28;20043;-66
2023/04/04 03:14:48;;;;;;;30.58;18.13;;;;;;;10.36;96.58;98285.34;3159536;28;20314;-66
2023/04/04 03:16:21;;;;;;;30.45;18.98;;;;;;;10.36;96.38;98289.72;3161311;28;20051;-66
2023/04/04 03:17:53;;;;;;;31.48;19.40;;;;;;;10.28;96.31;98286.81;3161657;28;20506;-66
2023/04/04 03:19:24;;;;;;;32.90;19.80;;;;;;;10.28;96.49;98289.41;3157030;28;20068;-66
2023/04/04 03:20:56;;;;;;;34.05;19.30;;;;;;;10.25;96.31;98287.81;3155603;28;20056;-66
2023/04/04 03:22:28;;;;;;;33.33;18.70;;;;;;;10.27;96.03;98305.97;3161258;28;20076;-65
2023/04/04 03:24:00;;;;;;;32.10;19.73;;;;;;;10.25;96.37;98301.63;3162191;28;20174;-65
2023/04/04 03:25:31;;;;;;;35.28;21.00;;;;;;;10.21;96.30;98289.78;3161677;28;20142;-66
2023/04/04 03:27:03;;;;;;;45.42;22.17;;;;;;;10.28;96.20;98286.81;3160674;28;20393;-66
2023/04/04 03:28:35;;;;;;;38.38;21.88;;;;;;;10.28;96.11;98295.44;3155197;28;20071;-66
2023/04/04 03:30:09;;;;;;;44.00;22.90;;;;;;;9.54;95.91;98174.72;3161191;28;21089;-65
2023/04/04 03:31:41;;;;;;;40.00;21.65;;;;;;;10.25;96.37;98293.84;3162090;28;20546;-65
2023/04/04 03:33:14;;;;;;;41.30;21.75;;;;;;;10.24;96.23;98307.78;3161178;28;20062;-66
2023/04/04 03:34:46;;;;;;;36.40;20.20;;;;;;;10.21;95.82;98308.00;3160214;28;20496;-65
2023/04/04 03:36:18;;;;;;;39.10;21.65;;;;;;;10.23;95.90;98316.53;3160641;28;20309;-65
2023/04/04 03:37:49;;;;;;;42.30;21.25;;;;;;;9.85;95.88;98254.09;3160652;28;20287;-66
2023/04/04 03:39:21;;;;;;;36.05;20.80;;;;;;;10.23;96.00;98321.75;3160587;28;20079;-66
2023/04/04 03:41:02;;;;;;;39.25;20.98;;;;;;;10.21;96.17;98313.19;3160500;28;20117;-66
2023/04/04 03:42:34;;;;;;;37.00;19.55;;;;;;;10.20;96.04;98310.69;3160382;28;20054;-66
2023/04/04 03:44:06;;;;;;;35.10;19.23;;;;;;;10.18;96.07;98308.22;3160709;28;20056;-66
2023/04/04 03:45:39;;;;;;;37.03;18.70;;;;;;;10.20;96.28;98310.69;3160670;28;20055;-66
2023/04/04 03:47:11;;;;;;;;;;;;;;;10.13;96.26;98315.47;3160856;28;20054;-67
2023/04/04 03:48:43;;;;;;;39.55;20.48;;;;;;;10.12;96.46;98328.59;3160625;28;19992;-66
2023/04/04 03:50:14;;;;;;;35.03;19.77;;;;;;;10.12;96.52;98321.63;3160210;28;20059;-66
2023/04/04 03:51:46;;;;;;;32.95;19.92;;;;;;;10.14;96.09;98316.31;3160385;28;20580;-66
2023/04/04 03:53:18;;;;;;;34.70;19.67;;;;;;;10.15;96.25;98323.19;3160580;28;20061;-66
2023/04/04 03:54:50;;;;;;;38.50;20.17;;;;;;;10.17;96.27;98322.13;3158679;28;20056;-66
2023/04/04 03:56:22;;;;;;;37.88;19.15;;;;;;;10.17;96.10;98322.13;3161491;28;20047;-66
2023/04/04 03:57:54;;;;;;;37.30;20.70;;;;;;;10.16;96.27;98330.88;3158443;28;20047;-66
2023/04/04 03:59:26;;;;;;;34.75;21.17;;;;;;;10.19;96.05;98324.66;3153109;28;20090;-66
2023/04/04 04:01:00;;;;;;;40.53;21.00;;;;;;;10.20;96.17;98332.34;3160183;28;20063;-66
2023/04/04 04:02:31;;;;;;;;;;;;;;;10.14;95.75;98330.13;3161019;28;20052;-66
2023/04/04 04:04:03;;;;;;;38.40;21.08;;;;;;;10.12;96.42;98328.59;3160769;28;19943;-66
2023/04/04 04:05:35;;;;;;;35.90;20.23;;;;;;;10.16;96.39;98330.88;3161002;28;20063;-66
2023/04/04 04:07:07;;;;;;;39.33;21.65;;;;;;;10.18;96.36;98334.22;3160733;28;20090;-65
2023/04/04 04:08:39;;;;;;;37.67;20.90;;;;;;;10.20;95.96;98332.34;3161580;28;20448;-66
2023/04/04 04:10:12;;;;;;;39.42;22.85;;;;;;;10.18;96.41;98330.78;3160664;28;20048;-65
2023/04/04 04:11:57;;;;;;;37.83;22.88;;;;;;;10.21;96.46;98328.81;3160655;28;20047;-66
2023/04/04 04:13:28;;;;;;;38.53;22.45;;;;;;;10.20;96.43;98331.50;3152025;28;20048;-65
2023/04/04 04:14:59;;;;;;;38.53;21.08;;;;;;;10.19;96.66;98333.28;3159231;28;20059;-65
2023/04/04 04:16:33;;;;;;;36.65;22.48;;;;;;;10.23;96.46;98332.16;3159864;28;20051;-66
2023/04/04 04:18:05;;;;;;;;;;;;;;;10.19;96.32;98341.09;3160910;28;20043;-66
2023/04/04 04:19:37;;;;;;;38.92;22.35;;;;;;;10.17;96.75;98337.75;3159539;28;20629;-66
2023/04/04 04:21:09;;;;;;;41.58;22.33;;;;;;;10.19;96.36;98330.69;3152649;28;20055;-65
2023/04/04 04:22:45;;;;;;;38.72;23.80;;;;;;;10.19;96.56;98325.47;3161196;28;20048;-65
2023/04/04 04:24:17;;;;;;;44.65;23.90;;;;;;;10.17;96.94;98324.72;3160933;28;20070;-64
2023/04/04 04:25:49;;;;;;;41.58;24.95;;;;;;;10.23;96.80;98328.69;3160515;28;20067;-66
2023/04/04 04:27:22;;;;;;;40.05;25.30;;;;;;;10.24;96.71;98328.59;3160908;28;20115;-65
2023/04/04 04:28:54;;;;;;;45.97;25.33;;;;;;;10.27;96.96;98326.78;3158221;28;20048;-68
2023/04/04 04:30:27;;;;;;;44.85;25.38;;;;;;;10.31;97.40;98328.22;3161037;27;20087;-68
2023/04/04 04:32:00;;;;;;;44.70;26.30;;;;;;;10.34;97.03;98328.00;3160421;28;20494;-67
2023/04/04 04:33:32;;;;;;;50.70;30.30;;;;;;;10.37;97.29;98326.03;3161149;28;20487;-68
2023/04/04 04:35:05;;;;;;;42.53;25.17;;;;;;;10.40;96.96;98340.59;3160899;28;20102;-63
2023/04/04 04:36:37;;;;;;;44.33;25.48;;;;;;;10.44;96.83;98335.09;3160279;28;20047;-65
2023/04/04 04:38:09;;;;;;;43.55;23.83;;;;;;;10.47;97.02;98339.28;3159898;28;20066;-64
2023/04/04 04:39:41;;;;;;;42.47;24.63;;;;;;;10.48;97.20;98330.50;3160618;28;20086;-64
2023/04/04 04:41:13;;;;;;;39.92;25.10;;;;;;;10.49;97.07;98334.78;3159651;28;20911;-67
2023/04/04 04:42:45;;;;;;;40.97;24.65;;;;;;;10.51;97.14;98339.88;3158473;28;20109;-67
2023/04/04 04:44:18;;;;;;;35.73;22.23;;;;;;;10.52;97.17;98344.97;3152193;28;20047;-66
2023/04/04 04:45:50;;;;;;;33.50;21.88;;;;;;;10.50;97.12;98339.06;3159999;28;20317;-66
2023/04/04 04:47:24;;;;;;;36.38;22.02;;;;;;;10.51;97.11;98343.31;3159959;28;20180;-70
2023/04/04 04:48:55;;;;;;;;;;;;;;;10.48;97.34;98338.31;3160702;28;20547;-66
2023/04/04 04:50:27;;;;;;;36.05;21.38;;;;;;;10.53;97.27;98338.00;3160093;28;19975;-68
2023/04/04 04:52:00;;;;;;;35.72;20.67;;;;;;;10.57;97.36;98339.47;3160628;28;20051;-63
2023/04/04 04:53:32;;;;;;;32.30;20.80;;;;;;;10.60;97.11;98347.06;3159491;28;20841;-63
2023/04/04 04:55:05;;;;;;;35.33;20.30;;;;;;;10.62;97.15;98353.84;3155562;28;20136;-64
2023/04/04 04:56:37;;;;;;;28.33;17.80;;;;;;;10.60;97.12;98345.28;3158065;28;20759;-65
2023/04/04 04:58:10;;;;;;;30.77;18.67;;;;;;;10.24;96.62;98307.78;3152597;28;20072;-64
2023/04/04 04:59:42;;;;;;;32.55;18.15;;;;;;;10.52;96.57;98334.56;3156831;28;20047;-63
2023/04/04 05:01:14;;;;;;;28.98;17.98;;;;;;;10.55;96.77;98347.38;3159592;28;20660;-64
2023/04/04 05:02:48;;;;;;;28.33;16.58;;;;;;;10.58;96.84;98341.94;3159188;28;20048;-63
2023/04/04 05:04:21;;;;;;;25.50;16.83;;;;;;;10.56;96.70;98337.78;3160145;28;20055;-64
2023/04/04 05:05:52;;;;;;;24.45;15.45;;;;;;;10.52;96.45;98325.94;3153624;28;20056;-65
2023/04/04 05:07:25;;;;;;;25.42;16.23;;;;;;;10.50;96.56;98331.25;3157915;28;20553;-64
2023/04/04 05:08:57;;;;;;;24.42;16.33;;;;;;;10.48;96.48;98331.34;3159583;28;20520;-65
2023/04/04 05:10:29;;;;;;;26.50;16.98;;;;;;;10.51;96.82;98334.69;3159277;28;20049;-64
2023/04/04 05:12:00;;;;;;;31.98;16.50;;;;;;;10.52;96.65;98339.78;3159740;28;20138;-66
2023/04/04 05:13:32;;;;;;;27.00;16.75;;;;;;;10.54;96.21;98339.69;3152081;28;20119;-64
2023/04/04 05:15:04;;;;;;;24.15;16.38;;;;;;;10.54;96.49;98345.72;3154387;28;20055;-63
2023/04/04 05:16:39;;;;;;;26.95;16.20;;;;;;;10.53;96.39;98333.66;3160229;28;20078;-63
2023/04/04 05:18:11;;;;;;;28.70;17.45;;;;;;;10.53;96.19;98336.25;3160676;28;20090;-64
2023/04/04 05:19:43;;;;;;;29.13;16.90;;;;;;;10.54;96.30;98337.91;3158718;28;20047;-65
2023/04/04 05:21:15;;;;;;;28.95;17.45;;;;;;;10.55;96.46;98333.53;3156578;28;20112;-66
2023/04/04 05:22:47;;;;;;;36.70;18.15;;;;;;;10.54;96.43;98335.31;3159037;28;20087;-65
2023/04/04 05:24:21;;;;;;;29.52;17.40;;;;;;;10.54;96.01;98337.06;3160140;28;20512;-65
2023/04/04 05:25:53;;;;;;;30.23;16.85;;;;;;;10.17;96.07;98277.91;3159434;28;20058;-64
2023/04/04 05:27:25;;;;;;;27.52;16.63;;;;;;;10.53;95.80;98338.00;3147150;28;20056;-66
2023/04/04 05:28:58;;;;;;;28.00;17.42;;;;;;;10.54;96.16;98337.06;3148702;28;20051;-64
2023/04/04 05:30:33;;;;;;;31.40;18.52;;;;;;;10.51;96.10;98329.47;3152888;28;20052;-65
2023/04/04 05:32:16;;;;;;;27.63;16.38;;;;;;;10.52;96.38;98328.53;3158289;28;20491;-62
2023/04/04 05:34:25;;;;;;;29.90;18.20;;;;;;;10.54;96.56;98340.50;3159597;28;20051;-67
2023/04/04 05:36:40;;;;;;;27.50;16.65;;;;;;;10.54;96.65;98331.88;3136254;28;20064;-66
2023/04/04 05:38:14;;;;;;;27.05;17.20;;;;;;;10.54;96.82;98340.50;3121558;28;20083;-65
2023/04/04 05:40:06;;;;;;;28.58;16.60;;;;;;;10.57;96.48;98337.69;3158052;28;20576;-65
2023/04/04 05:41:41;;;;;;;30.40;16.63;;;;;;;10.61;96.50;98327.91;3156942;28;20441;-67
2023/04/04 05:43:22;;;;;;;26.85;16.48;;;;;;;10.66;96.36;98333.63;3155468;28;20125;-64
2023/04/04 05:44:55;;;;;;;29.25;16.80;;;;;;;10.67;96.23;98333.50;3159223;28;20051;-66
2023/04/04 05:46:31;;;;;;;31.00;17.83;;;;;;;10.72;95.96;98337.59;3159416;28;20789;-65
2023/04/04 05:48:04;;;;;;;24.20;15.95;;;;;;;10.74;95.81;98335.69;3159381;28;20051;-63
2023/04/04 05:49:36;;;;;;;24.02;14.88;;;;;;;10.76;95.70;98339.03;3159088;28;20058;-63
2023/04/04 05:51:18;;;;;;;22.48;14.57;;;;;;;10.77;96.05;98345.91;3160094;28;20613;-64
2023/04/04 05:52:55;;;;;;;25.20;15.38;;;;;;;10.74;95.73;98341.75;3162018;28;20047;-65
2023/04/04 05:54:28;;;;;;;23.42;14.88;;;;;;;10.80;95.57;98346.53;3152976;28;20044;-61
2023/04/04 05:56:10;;;;;;;26.42;14.32;;;;;;;10.81;95.48;98357.78;3161767;28;20051;-64
2023/04/04 05:57:53;;;;;;;26.42;14.70;;;;;;;10.81;95.61;98348.19;3160296;28;20074;-64
2023/04/04 05:59:30;;;;;;;23.33;14.73;;;;;;;10.82;95.35;98349.84;3158889;28;20533;-62
2023/04/04 06:01:07;;;;;;;25.85;13.57;;;;;;;10.79;95.16;98350.06;3156188;28;20078;-62
2023/04/04 06:02:40;;;;;;;23.17;13.80;;;;;;;10.82;94.90;98349.00;3161921;28;20065;-64
2023/04/04 06:04:16;;;;;;;21.23;12.57;;;;;;;10.86;94.83;98345.28;3162953;28;20056;-64
2023/04/04 06:05:52;;;;;;;23.38;13.00;;;;;;;10.89;94.86;98358.09;3162025;28;20129;-66
2023/04/04 06:07:25;;;;;;;22.08;12.63;;;;;;;10.90;94.66;98359.75;3162225;28;20055;-64
2023/04/04 06:08:58;;;;;;;31.07;12.87;;;;;;;10.92;95.03;98350.06;3167496;28;20603;-64
2023/04/04 06:10:33;;;;;;;25.17;12.63;;;;;;;10.95;94.68;98364.63;3171902;28;20313;-64
2023/04/04 06:12:05;;;;;;;21.58;12.80;;;;;;;10.96;94.42;98371.50;3171634;28;20055;-63
2023/04/04 06:16:11;;;;;;;24.83;12.60;;;;;;;10.97;94.33;98373.16;3167360;28;20055;-64
2023/04/04 06:17:59;;;;;;;19.65;12.23;;;;;;;10.97;94.57;98363.56;3166916;28;20444;-65
2023/04/04 06:19:43;;;;;;;27.08;15.20;;;;;;;10.97;94.33;98370.56;3169428;28;20065;-63
2023/04/04 06:21:41;;;;;;;24.05;12.13;;;;;;;10.98;94.15;98364.44;3171500;28;20105;-63
2023/04/04 06:25:28;;;;;;;;;;;;;;;10.93;93.96;98362.97;3156477;28;20104;-66
2023/04/04 06:27:23;;;;;;;21.30;12.45;;;;;;;10.91;94.25;98369.22;3171534;28;19955;-63
2023/04/04 06:29:04;;;;;;;25.27;12.13;;;;;;;10.92;94.16;98365.69;3160651;28;20048;-64
2023/04/04 06:30:40;;;;;;;20.77;12.13;;;;;;;10.98;94.19;98369.63;3165127;28;20420;-63
2023/04/04 06:32:25;;;;;;;22.55;12.02;;;;;;;10.98;93.74;98365.25;3164344;28;20063;-64
2023/04/04 06:34:13;;;;;;;23.67;12.10;;;;;;;10.96;93.66;98361.91;3169394;28;20116;-63
2023/04/04 06:36:20;;;;;;;25.42;13.15;;;;;;;10.97;93.64;98371.38;3162976;28;20051;-65
2023/04/04 06:38:08;;;;;;;22.38;13.32;;;;;;;11.01;93.53;98362.44;3121893;28;20048;-65
2023/04/04 06:39:40;;;;;;;23.90;13.32;;;;;;;11.01;93.59;98367.66;3163703;28;20131;-66
2023/04/04 06:41:15;;;;;;;23.80;13.50;;;;;;;11.00;93.68;98363.34;3168075;28;20143;-66
2023/04/04 06:43:07;;;;;;;19.27;13.52;;;;;;;10.96;93.41;98361.91;3164563;28;20121;-68
2023/04/04 06:44:58;;;;;;;24.80;12.68;;;;;;;10.68;93.37;98329.97;3160319;28;20584;-64
2023/04/04 06:46:31;;;;;;;27.77;14.05;;;;;;;10.88;93.55;98366.81;3164923;28;20142;-66
2023/04/04 06:48:04;;;;;;;21.48;12.75;;;;;;;10.86;93.61;98363.50;3158944;28;20059;-67
2023/04/04 06:52:02;;;;;;;26.60;13.70;;;;;;;10.84;93.69;98362.78;3164001;28;20083;-66
2023/04/04 06:53:44;;;;;;;24.30;13.95;;;;;;;10.85;93.47;98359.22;3168372;28;20039;-67
2023/04/04 06:55:43;;;;;;;26.60;15.52;;;;;;;10.91;93.81;98362.25;3167916;28;20044;-62
2023/04/04 06:57:17;;;;;;;26.35;15.48;;;;;;;10.95;93.88;98352.44;3171136;28;20052;-67
2023/04/04 06:58:50;;;;;;;25.05;14.40;;;;;;;10.99;93.81;98359.09;3167925;28;20451;-65
2023/04/04 07:08:48;;;;;;;31.02;17.50;;;;;;;11.05;93.62;98355.22;3157099;28;20137;-65
2023/04/04 07:10:20;;;;;;;26.70;14.95;;;;;;;11.09;93.45;98360.13;3159911;28;20051;-65
2023/04/04 07:12:05;;;;;;;25.52;15.07;;;;;;;11.12;93.59;98354.69;3170423;28;20490;-64
2023/04/04 07:13:40;;;;;;;25.55;14.63;;;;;;;11.13;93.63;98351.16;3170360;28;20039;-67
2023/04/04 07:15:16;;;;;;;29.30;14.40;;;;;;;11.15;93.31;98357.09;3168470;28;20201;-67
2023/04/04 07:19:09;;;;;;;28.48;15.07;;;;;;;11.14;93.01;98365.00;3171271;28;20401;-67
2023/04/04 07:20:54;;;;;;;23.60;14.50;;;;;;;11.14;92.82;98370.22;3168663;28;20436;-67
2023/04/04 07:22:33;;;;;;;27.63;14.73;;;;;;;11.15;93.09;98366.66;3170869;28;20053;-67
2023/04/04 07:24:13;;;;;;;23.05;14.18;;;;;;;11.18;93.09;98369.06;3170807;28;20069;-64
2023/04/04 07:25:55;;;;;;;26.05;14.32;;;;;;;11.00;92.86;98345.13;3170963;28;20054;-66
2023/04/04 07:27:27;;;;;;;21.92;13.57;;;;;;;11.15;92.97;98375.34;3169637;28;20461;-65
2023/04/04 07:29:00;;;;;;;29.70;14.13;;;;;;;11.20;93.13;98379.38;3159781;28;20539;-65
2023/04/04 07:30:45;;;;;;;31.65;14.85;;;;;;;11.16;92.88;98370.94;3165883;28;20108;-66
2023/04/04 07:32:17;;;;;;;23.42;14.23;;;;;;;11.21;92.70;98379.28;3170782;28;20054;-66
2023/04/04 07:34:08;;;;;;;;;;;;;;;;;;;;;